Time,TemperatureF,DewpointF,PressureIn,WindDirection,WindDirectionDegrees,WindSpeedMPH,WindSpeedGustMPH,Humidity,HourlyPrecipIn,Conditions,Clouds,dailyrainin,SoftwareType,DateUTC
2014-04-20 00:00:00,30.9,26.6,30.36,NW,306,0.0,0.0,84,0.00,CLR,FEW,0.00,WeatherDisplay:10.37,2014-04-20 04:00:00,
2014-04-20 00:01:00,30.8,26.5,30.36,NW,306,0.0,0.0,84,0.00,CLR,FEW,0.00,WeatherDisplay:10.37,2014-04-20 04:01:00,
2014-04-20 00:06:00,30.6,26.3,30.36,NW,306,0.0,0.0,84,0.00,CLR,FEW,0.00,WeatherDisplay:10.37,2014-04-20 04:06:00,
2014-04-20 00:11:00,30.7,26.7,30.36,NW,306,0.0,0.0,85,0.00,CLR,FEW,0.00,WeatherDisplay:10.37,2014-04-20 04:11:00,
2014-04-20 00:16:00,30.6,26.6,30.36,NW,306,0.0,0.0,85,0.00,CLR,FEW,0.00,WeatherDisplay:10.37,2014-04-20 04:16:00,
2014-04-20 00:21:00,30.4,26.4,30.36,NW,306,0.0,0.0,85,0.00,CLR,FEW,0.00,WeatherDisplay:10.37,2014-04-20 04:21:00,
2014-04-20 00:26:00,30.2,26.2,30.37,NW,306,0.0,0.0,85,0.00,CLR,FEW,0.00,WeatherDisplay:10.37,2014-04-20 04:26:00,
2014-04-20 00:31:00,30.1,26.4,30.37,NW,306,0.0,0.0,86,0.00,CLR,FEW,0.00,WeatherDisplay:10.37,2014-04-20 04:31:00,
2014-04-20 00:36:00,29.9,26.2,30.37,NW,306,0.0,0.0,86,0.00,CLR,FEW,0.00,WeatherDisplay:10.37,2014-04-20 04:36:00,
2014-04-20 00:41:00,29.8,26.1,30.38,NW,306,0.0,0.0,86,0.00,CLR,FEW,0.00,WeatherDisplay:10.37,2014-04-20 04:41:00,
2014-04-20 00:46:00,29.7,26.0,30.38,NW,306,0.0,0.0,86,0.00,CLR,FEW,0.00,WeatherDisplay:10.37,2014-04-20 04:46:00,
2014-04-20 00:51:00,29.8,26.4,30.38,NW,306,0.0,0.0,87,0.00,CLR,FEW,0.00,WeatherDisplay:10.37,2014-04-20 04:51:00,
2014-04-20 00:56:00,30.0,26.6,30.38,NW,306,0.0,0.0,87,0.00,CLR,FEW,0.00,WeatherDisplay:10.37,2014-04-20 04:56:00,
2014-04-20 01:01:00,29.7,26.3,30.38,NW,306,0.0,0.0,87,0.00,CLR,FEW,0.00,WeatherDisplay:10.37,2014-04-20 05:01:00,
2014-04-20 01:06:00,29.6,26.2,30.38,NW,306,0.0,0.0,87,0.00,CLR,FEW,0.00,WeatherDisplay:10.37,2014-04-20 05:06:00,
2014-04-20 01:11:00,29.5,26.1,30.38,NW,306,0.0,0.0,87,0.00,CLR,FEW,0.00,WeatherDisplay:10.37,2014-04-20 05:11:00,
2014-04-20 01:16:00,29.5,26.4,30.38,NW,306,0.0,0.0,88,0.00,CLR,FEW,0.00,WeatherDisplay:10.37,2014-04-20 05:16:00,
2014-04-20 01:21:00,29.4,26.3,30.38,NW,306,0.0,0.0,88,0.00,CLR,FEW,0.00,WeatherDisplay:10.37,2014-04-20 05:21:00,
2014-04-20 01:26:00,29.3,26.2,30.38,NW,306,0.0,0.0,88,0.00,CLR,FEW,0.00,WeatherDisplay:10.37,2014-04-20 05:26:00,
2014-04-20 01:31:00,29.3,26.5,30.38,NW,306,0.0,0.0,89,0.00,CLR,FEW,0.00,WeatherDisplay:10.37,2014-04-20 05:31:00,
2014-04-20 01:37:00,29.2,26.4,30.38,NW,306,0.0,0.0,89,0.00,CLR,FEW,0.00,WeatherDisplay:10.37,2014-04-20 05:37:00,
2014-04-20 01:42:00,29.1,26.3,30.39,NW,306,0.0,0.0,89,0.00,CLR,FEW,0.00,WeatherDisplay:10.37,2014-04-20 05:42:00,
2014-04-20 01:47:00,28.9,26.3,30.39,NW,306,0.0,0.0,90,0.00,CLR,FEW,0.00,WeatherDisplay:10.37,2014-04-20 05:47:00,
2014-04-20 01:52:00,28.7,26.1,30.39,NW,306,0.0,0.0,90,0.00,CLR,FEW,0.00,WeatherDisplay:10.37,2014-04-20 05:52:00,
2014-04-20 01:57:00,28.7,26.1,30.38,NW,306,0.0,0.0,90,0.00,CLR,FEW,0.00,WeatherDisplay:10.37,2014-04-20 05:57:00,
2014-04-20 02:02:00,28.6,26.0,30.38,NW,306,0.0,0.0,90,0.00,CLR,FEW,0.00,WeatherDisplay:10.37,2014-04-20 06:02:00,
2014-04-20 02:07:00,28.7,26.1,30.38,NW,306,0.3,1.2,90,0.00,CLR,FEW,0.00,WeatherDisplay:10.37,2014-04-20 06:07:00,
2014-04-20 02:12:00,28.8,26.5,30.38,NW,306,0.0,0.0,91,0.00,CLR,FEW,0.00,WeatherDisplay:10.37,2014-04-20 06:12:00,
2014-04-20 02:17:00,28.7,26.1,30.38,NW,306,0.0,0.0,90,0.00,CLR,FEW,0.00,WeatherDisplay:10.37,2014-04-20 06:17:00,
2014-04-20 02:22:00,28.4,25.8,30.38,NW,306,0.0,0.0,90,0.00,CLR,FEW,0.00,WeatherDisplay:10.37,2014-04-20 06:22:00,
2014-04-20 02:27:00,28.3,26.0,30.37,NW,306,0.0,0.0,91,0.00,CLR,FEW,0.00,WeatherDisplay:10.37,2014-04-20 06:27:00,
2014-04-20 02:32:00,28.4,25.8,30.37,NW,306,0.0,0.0,90,0.00,CLR,FEW,0.00,WeatherDisplay:10.37,2014-04-20 06:32:00,
2014-04-20 02:37:00,28.4,25.8,30.37,NW,306,0.3,1.2,90,0.00,CLR,FEW,0.00,WeatherDisplay:10.37,2014-04-20 06:37:00,
2014-04-20 02:42:00,28.4,25.8,30.36,NW,306,0.1,1.2,90,0.00,CLR,FEW,0.00,WeatherDisplay:10.37,2014-04-20 06:42:00,
2014-04-20 02:47:00,28.5,25.9,30.36,NW,306,0.2,1.2,90,0.00,CLR,FEW,0.00,WeatherDisplay:10.37,2014-04-20 06:47:00,
2014-04-20 02:52:00,28.5,25.7,30.36,NW,306,0.8,2.3,89,0.00,CLR,FEW,0.00,WeatherDisplay:10.37,2014-04-20 06:52:00,
2014-04-20 02:57:00,28.7,25.9,30.37,NW,306,3.6,3.6,89,0.00,CLR,FEW,0.00,WeatherDisplay:10.37,2014-04-20 06:57:00,
2014-04-20 03:02:00,28.8,26.0,30.37,NW,306,1.4,3.5,89,0.00,CLR,FEW,0.00,WeatherDisplay:10.37,2014-04-20 07:02:00,
2014-04-20 03:07:00,28.7,25.9,30.37,NW,306,0.0,0.0,89,0.00,CLR,FEW,0.00,WeatherDisplay:10.37,2014-04-20 07:07:00,
2014-04-20 03:12:00,28.5,25.4,30.39,NW,306,0.0,0.0,88,0.00,CLR,FEW,0.00,WeatherDisplay:10.37,2014-04-20 07:12:00,
2014-04-20 03:17:00,28.4,25.0,30.39,NW,306,0.0,0.0,87,0.00,CLR,FEW,0.00,WeatherDisplay:10.37,2014-04-20 07:17:00,
2014-04-20 03:22:00,28.4,25.0,30.39,NW,306,0.0,0.0,87,0.00,CLR,FEW,0.00,WeatherDisplay:10.37,2014-04-20 07:22:00,
2014-04-20 03:27:00,28.4,25.0,30.39,NW,306,0.0,0.0,87,0.00,CLR,FEW,0.00,WeatherDisplay:10.37,2014-04-20 07:27:00,
2014-04-20 03:32:00,28.4,25.0,30.39,NW,306,0.0,0.0,87,0.00,CLR,FEW,0.00,WeatherDisplay:10.37,2014-04-20 07:32:00,
2014-04-20 03:37:00,28.4,25.0,30.39,NW,306,0.0,0.0,87,0.00,CLR,FEW,0.00,WeatherDisplay:10.37,2014-04-20 07:37:00,
2014-04-20 03:42:00,28.4,24.7,30.40,NW,306,0.0,0.0,86,0.00,CLR,FEW,0.00,WeatherDisplay:10.37,2014-04-20 07:42:00,
2014-04-20 03:47:00,28.3,24.6,30.40,NW,306,0.0,0.0,86,0.00,CLR,FEW,0.00,WeatherDisplay:10.37,2014-04-20 07:47:00,
2014-04-20 03:52:00,28.4,24.7,30.40,NW,306,0.0,0.0,86,0.00,CLR,FEW,0.00,WeatherDisplay:10.37,2014-04-20 07:52:00,
2014-04-20 03:57:00,28.3,24.6,30.40,NW,306,0.0,0.0,86,0.00,CLR,FEW,0.00,WeatherDisplay:10.37,2014-04-20 07:57:00,
2014-04-20 04:02:00,28.6,24.9,30.40,NW,306,1.3,2.3,86,0.00,CLR,FEW,0.00,WeatherDisplay:10.37,2014-04-20 08:02:00,
2014-04-20 04:07:00,28.8,24.9,30.40,NW,306,0.0,0.0,85,0.00,CLR,FEW,0.00,WeatherDisplay:10.37,2014-04-20 08:07:00,
2014-04-20 04:12:00,28.8,24.9,30.39,NW,306,0.0,0.0,85,0.00,CLR,FEW,0.00,WeatherDisplay:10.37,2014-04-20 08:12:00,
2014-04-20 04:17:00,28.7,24.8,30.39,NW,306,0.0,0.0,85,0.00,CLR,FEW,0.00,WeatherDisplay:10.37,2014-04-20 08:17:00,
2014-04-20 04:22:00,28.4,24.5,30.39,NW,306,0.0,0.0,85,0.00,CLR,FEW,0.00,WeatherDisplay:10.37,2014-04-20 08:22:00,
2014-04-20 04:27:00,28.3,24.4,30.39,NW,306,0.0,0.0,85,0.00,CLR,FEW,0.00,WeatherDisplay:10.37,2014-04-20 08:27:00,
2014-04-20 04:32:00,28.1,24.2,30.39,NW,306,0.0,0.0,85,0.00,CLR,FEW,0.00,WeatherDisplay:10.37,2014-04-20 08:32:00,
2014-04-20 04:37:00,27.9,24.0,30.39,NW,306,0.0,0.0,85,0.00,CLR,FEW,0.00,WeatherDisplay:10.37,2014-04-20 08:37:00,
2014-04-20 04:42:00,27.7,23.8,30.40,NW,306,0.1,1.0,85,0.00,CLR,FEW,0.00,WeatherDisplay:10.37,2014-04-20 08:42:00,
2014-04-20 04:47:00,27.9,24.3,30.40,NW,306,0.1,2.3,86,0.00,CLR,FEW,0.00,WeatherDisplay:10.37,2014-04-20 08:47:00,
2014-04-20 04:52:00,28.1,24.5,30.40,NW,306,0.0,0.0,86,0.00,CLR,FEW,0.00,WeatherDisplay:10.37,2014-04-20 08:52:00,
2014-04-20 04:57:00,28.0,24.4,30.40,NW,306,0.0,0.0,86,0.00,CLR,FEW,0.00,WeatherDisplay:10.37,2014-04-20 08:57:00,
2014-04-20 05:02:00,27.8,24.2,30.40,NW,306,0.0,1.0,86,0.00,CLR,FEW,0.00,WeatherDisplay:10.37,2014-04-20 09:02:00,
2014-04-20 05:07:00,27.9,24.3,30.40,NW,306,0.1,2.3,86,0.00,CLR,FEW,0.00,WeatherDisplay:10.37,2014-04-20 09:07:00,
2014-04-20 05:12:00,27.9,24.3,30.40,NW,306,0.0,0.0,86,0.00,CLR,FEW,0.00,WeatherDisplay:10.37,2014-04-20 09:12:00,
2014-04-20 05:17:00,27.7,24.1,30.40,NW,306,0.0,0.0,86,0.00,CLR,FEW,0.00,WeatherDisplay:10.37,2014-04-20 09:17:00,
2014-04-20 05:22:00,27.4,23.8,30.40,NW,306,0.0,0.0,86,0.00,CLR,FEW,0.00,WeatherDisplay:10.37,2014-04-20 09:22:00,
2014-04-20 05:27:00,27.0,23.4,30.41,NW,306,0.0,0.0,86,0.00,CLR,FEW,0.00,WeatherDisplay:10.37,2014-04-20 09:27:00,
2014-04-20 05:32:00,26.8,23.2,30.41,NW,306,0.0,0.0,86,0.00,CLR,FEW,0.00,WeatherDisplay:10.37,2014-04-20 09:32:00,
2014-04-20 05:37:00,26.5,22.9,30.41,NW,306,0.0,0.0,86,0.00,CLR,FEW,0.00,WeatherDisplay:10.37,2014-04-20 09:37:00,
2014-04-20 05:42:00,26.3,22.7,30.41,NW,306,0.0,0.0,86,0.00,CLR,FEW,0.00,WeatherDisplay:10.37,2014-04-20 09:42:00,
2014-04-20 05:47:00,26.3,22.7,30.41,NW,306,0.0,0.0,86,0.00,CLR,FEW,0.00,WeatherDisplay:10.37,2014-04-20 09:47:00,
2014-04-20 05:52:00,26.3,22.7,30.41,NW,306,0.0,0.0,86,0.00,CLR,FEW,0.00,WeatherDisplay:10.37,2014-04-20 09:52:00,
2014-04-20 05:57:00,26.2,22.6,30.43,NW,306,0.0,0.0,86,0.00,CLR,FEW,0.00,WeatherDisplay:10.37,2014-04-20 09:57:00,
2014-04-20 06:02:00,26.2,22.6,30.43,NW,306,0.0,0.0,86,0.00,CLR,FEW,0.00,WeatherDisplay:10.37,2014-04-20 10:02:00,
2014-04-20 06:07:00,26.5,22.9,30.43,NW,306,0.0,0.0,86,0.00,CLR,FEW,0.00,WeatherDisplay:10.37,2014-04-20 10:07:00,
2014-04-20 06:12:00,26.5,22.9,30.43,NW,306,0.0,0.0,86,0.00,CLR,FEW,0.00,WeatherDisplay:10.37,2014-04-20 10:12:00,
2014-04-20 06:17:00,26.4,23.1,30.43,NW,306,0.0,0.0,87,0.00,CLR,FEW,0.00,WeatherDisplay:10.37,2014-04-20 10:17:00,
2014-04-20 06:22:00,26.4,23.1,30.43,NW,306,0.0,0.0,87,0.00,CLR,FEW,0.00,WeatherDisplay:10.37,2014-04-20 10:22:00,
2014-04-20 06:27:00,26.8,23.7,30.43,NW,306,0.0,0.0,88,0.00,CLR,FEW,0.00,WeatherDisplay:10.37,2014-04-20 10:27:00,
2014-04-20 06:32:00,27.4,24.3,30.43,NW,306,0.5,1.2,88,0.00,CLR,FEW,0.00,WeatherDisplay:10.37,2014-04-20 10:32:00,
2014-04-20 06:37:00,27.9,25.1,30.43,NW,306,0.2,2.3,89,0.00,CLR,FEW,0.00,WeatherDisplay:10.37,2014-04-20 10:37:00,
2014-04-20 06:42:00,28.3,25.5,30.44,NW,306,0.0,0.0,89,0.00,CLR,FEW,0.00,WeatherDisplay:10.37,2014-04-20 10:42:00,
2014-04-20 06:45:00,28.5,25.4,30.44,NW,306,0.0,0.0,88,0.00,CLR,FEW,0.00,WeatherDisplay:10.37,2014-04-20 10:45:00,
2014-04-20 06:50:00,28.7,25.6,30.44,NW,306,0.0,0.0,88,0.00,CLR,FEW,0.00,WeatherDisplay:10.37,2014-04-20 10:50:00,
2014-04-20 06:55:00,29.0,25.9,30.44,NW,306,0.0,0.0,88,0.00,CLR,FEW,0.00,WeatherDisplay:10.37,2014-04-20 10:55:00,
2014-04-20 07:00:00,29.3,25.9,30.44,NW,306,0.0,0.0,87,0.00,CLR,FEW,0.00,WeatherDisplay:10.37,2014-04-20 11:00:00,
2014-04-20 07:05:00,30.1,26.7,30.44,NW,306,0.0,0.0,87,0.00,CLR,FEW,0.00,WeatherDisplay:10.37,2014-04-20 11:05:00,
2014-04-20 07:10:00,30.2,26.2,30.44,NW,306,0.5,1.2,85,0.00,CLR,FEW,0.00,WeatherDisplay:10.37,2014-04-20 11:10:00,
2014-04-20 07:15:00,30.4,25.9,30.44,NW,306,0.0,0.0,83,0.00,CLR,FEW,0.00,WeatherDisplay:10.37,2014-04-20 11:15:00,
2014-04-20 07:20:00,31.1,26.5,30.44,NW,306,0.0,0.0,83,0.00,CLR,FEW,0.00,WeatherDisplay:10.37,2014-04-20 11:20:00,
2014-04-20 07:25:00,31.9,26.7,30.44,NW,306,0.0,0.0,81,0.00,CLR,FEW,0.00,WeatherDisplay:10.37,2014-04-20 11:25:00,
2014-04-20 07:30:00,31.9,26.4,30.44,NW,306,0.0,0.0,80,0.00,CLR,FEW,0.00,WeatherDisplay:10.37,2014-04-20 11:30:00,
2014-04-20 07:35:00,32.0,26.8,30.44,NW,306,0.0,0.0,81,0.00,CLR,FEW,0.00,WeatherDisplay:10.37,2014-04-20 11:35:00,
2014-04-20 07:40:00,32.2,26.4,30.44,NW,306,0.0,0.0,79,0.00,CLR,FEW,0.00,WeatherDisplay:10.37,2014-04-20 11:40:00,
2014-04-20 07:45:00,32.5,26.7,30.44,NW,306,0.0,0.0,79,0.00,CLR,FEW,0.00,WeatherDisplay:10.37,2014-04-20 11:45:00,
2014-04-20 07:50:00,33.1,26.4,30.44,NW,306,0.1,1.0,76,0.00,CLR,FEW,0.00,WeatherDisplay:10.37,2014-04-20 11:50:00,
2014-04-20 07:55:00,33.5,26.1,30.44,NW,306,0.0,0.0,74,0.00,CLR,FEW,0.00,WeatherDisplay:10.37,2014-04-20 11:55:00,
2014-04-20 08:00:00,34.3,26.5,30.44,NW,306,0.0,0.0,73,0.00,CLR,FEW,0.00,WeatherDisplay:10.37,2014-04-20 12:00:00,
2014-04-20 08:05:00,34.7,28.2,30.44,NW,306,0.0,0.0,77,0.00,CLR,FEW,0.00,WeatherDisplay:10.37,2014-04-20 12:05:00,
2014-04-20 08:10:00,36.0,26.5,30.44,NW,306,0.0,0.0,68,0.00,CLR,FEW,0.00,WeatherDisplay:10.37,2014-04-20 12:10:00,
2014-04-20 08:15:00,37.2,27.2,30.43,NW,306,0.2,0.0,67,0.00,CLR,FEW,0.00,WeatherDisplay:10.37,2014-04-20 12:15:00,
2014-04-20 08:20:00,37.5,28.6,30.43,NW,306,0.2,1.2,70,0.00,CLR,FEW,0.00,WeatherDisplay:10.37,2014-04-20 12:20:00,
2014-04-20 08:25:00,39.9,23.7,30.43,NW,306,0.9,2.0,52,0.00,CLR,FEW,0.00,WeatherDisplay:10.37,2014-04-20 12:25:00,
2014-04-20 08:30:00,39.9,21.8,30.43,NW,306,0.0,0.0,48,0.00,CLR,FEW,0.00,WeatherDisplay:10.37,2014-04-20 12:30:00,
2014-04-20 08:35:00,41.7,22.4,30.43,NW,306,0.0,1.2,46,0.00,CLR,FEW,0.00,WeatherDisplay:10.37,2014-04-20 12:35:00,
2014-04-20 08:40:00,42.3,21.4,30.43,NW,306,0.0,1.2,43,0.00,CLR,FEW,0.00,WeatherDisplay:10.37,2014-04-20 12:40:00,
2014-04-20 08:45:00,42.2,19.6,30.43,NW,306,3.9,5.0,40,0.00,CLR,FEW,0.00,WeatherDisplay:10.37,2014-04-20 12:45:00,
2014-04-20 08:50:00,42.3,19.1,30.43,NW,306,2.2,4.6,39,0.00,CLR,FEW,0.00,WeatherDisplay:10.37,2014-04-20 12:50:00,
2014-04-20 08:55:00,42.6,18.7,30.43,NW,306,0.8,3.5,38,0.00,CLR,FEW,0.00,WeatherDisplay:10.37,2014-04-20 12:55:00,
2014-04-20 09:00:00,43.1,18.6,30.43,NW,306,0.7,2.3,37,0.00,CLR,FEW,0.00,WeatherDisplay:10.37,2014-04-20 13:00:00,
2014-04-20 09:05:00,43.6,19.0,30.43,NW,306,0.7,2.3,37,0.00,CLR,FEW,0.00,WeatherDisplay:10.37,2014-04-20 13:05:00,
2014-04-20 09:10:00,43.3,19.4,30.43,NW,306,0.4,3.5,38,0.00,CLR,FEW,0.00,WeatherDisplay:10.37,2014-04-20 13:10:00,
2014-04-20 09:15:00,43.5,18.3,30.42,NW,306,0.0,0.0,36,0.00,CLR,FEW,0.00,WeatherDisplay:10.37,2014-04-20 13:15:00,
2014-04-20 09:20:00,43.4,19.5,30.42,NW,306,2.9,3.5,38,0.00,CLR,FEW,0.00,WeatherDisplay:10.37,2014-04-20 13:20:00,
2014-04-20 09:25:00,43.1,20.4,30.42,NW,306,0.0,0.0,40,0.00,CLR,FEW,0.00,WeatherDisplay:10.37,2014-04-20 13:25:00,
2014-04-20 09:30:00,44.7,19.3,30.43,NW,306,0.1,1.2,36,0.00,CLR,FEW,0.00,WeatherDisplay:10.37,2014-04-20 13:30:00,
2014-04-20 09:35:00,44.8,22.5,30.43,NW,306,0.2,1.2,41,0.00,CLR,FEW,0.00,WeatherDisplay:10.37,2014-04-20 13:35:00,
2014-04-20 09:40:00,45.0,19.0,30.43,NW,306,1.5,3.5,35,0.00,CLR,FEW,0.00,WeatherDisplay:10.37,2014-04-20 13:40:00,
2014-04-20 09:45:00,45.0,18.3,30.42,NW,306,0.0,2.3,34,0.00,CLR,FEW,0.00,WeatherDisplay:10.37,2014-04-20 13:45:00,
2014-04-20 09:50:00,45.7,19.6,30.42,NW,306,1.5,2.3,35,0.00,CLR,FEW,0.00,WeatherDisplay:10.37,2014-04-20 13:50:00,
2014-04-20 09:55:00,45.5,19.4,30.42,NW,306,0.8,4.0,35,0.00,CLR,FEW,0.00,WeatherDisplay:10.37,2014-04-20 13:55:00,
2014-04-20 10:00:00,45.4,17.9,30.42,NW,306,1.3,3.5,33,0.00,CLR,FEW,0.00,WeatherDisplay:10.37,2014-04-20 14:00:00,
2014-04-20 10:05:00,45.5,18.7,30.42,NW,306,0.2,1.2,34,0.00,CLR,FEW,0.00,WeatherDisplay:10.37,2014-04-20 14:05:00,
2014-04-20 10:10:00,46.0,19.8,30.42,NW,306,0.7,2.3,35,0.00,CLR,FEW,0.00,WeatherDisplay:10.37,2014-04-20 14:10:00,
2014-04-20 10:15:00,46.1,18.6,30.42,NW,306,1.7,3.5,33,0.00,CLR,FEW,0.00,WeatherDisplay:10.37,2014-04-20 14:15:00,
2014-04-20 10:20:00,46.5,18.9,30.42,NW,306,2.7,3.5,33,0.00,CLR,FEW,0.00,WeatherDisplay:10.37,2014-04-20 14:20:00,
2014-04-20 10:25:00,46.5,18.9,30.42,NW,306,0.7,2.3,33,0.00,CLR,FEW,0.00,WeatherDisplay:10.37,2014-04-20 14:25:00,
2014-04-20 10:30:00,46.4,19.5,30.42,NW,305,2.1,4.6,34,0.00,CLR,FEW,0.00,WeatherDisplay:10.37,2014-04-20 14:30:00,
2014-04-20 10:35:00,46.4,19.5,30.42,NW,304,2.0,5.0,34,0.00,CLR,FEW,0.00,WeatherDisplay:10.37,2014-04-20 14:35:00,
2014-04-20 10:40:00,46.5,18.9,30.42,NW,304,2.5,4.6,33,0.00,CLR,FEW,0.00,WeatherDisplay:10.37,2014-04-20 14:40:00,
2014-04-20 10:45:00,46.5,18.9,30.41,WNW,303,1.3,3.5,33,0.00,CLR,FEW,0.00,WeatherDisplay:10.37,2014-04-20 14:45:00,
2014-04-20 10:50:00,46.6,19.7,30.41,WNW,303,1.4,3.5,34,0.00,CLR,FEW,0.00,WeatherDisplay:10.37,2014-04-20 14:50:00,
2014-04-20 10:55:00,46.8,21.2,30.41,WNW,303,0.2,3.5,36,0.00,CLR,FEW,0.00,WeatherDisplay:10.37,2014-04-20 14:55:00,
2014-04-20 11:00:00,47.4,21.7,30.41,WNW,303,1.3,3.5,36,0.00,CLR,FEW,0.00,WeatherDisplay:10.37,2014-04-20 15:00:00,
2014-04-20 11:05:00,47.8,20.1,30.41,WNW,294,0.6,3.5,33,0.00,CLR,FEW,0.00,WeatherDisplay:10.37,2014-04-20 15:05:00,
2014-04-20 11:10:00,47.8,19.3,30.41,WNW,294,1.0,4.6,32,0.00,CLR,FEW,0.00,WeatherDisplay:10.37,2014-04-20 15:10:00,
2014-04-20 11:15:00,48.5,20.7,30.40,WNW,294,0.4,1.2,33,0.00,CLR,FEW,0.00,WeatherDisplay:10.37,2014-04-20 15:15:00,
2014-04-20 11:20:00,48.2,20.4,30.40,WNW,294,2.7,3.5,33,0.00,CLR,FEW,0.00,WeatherDisplay:10.37,2014-04-20 15:20:00,
2014-04-20 11:25:00,47.9,18.7,30.40,WNW,294,0.6,2.3,31,0.00,CLR,FEW,0.00,WeatherDisplay:10.37,2014-04-20 15:25:00,
2014-04-20 11:30:00,47.9,17.9,30.40,WNW,294,0.0,3.5,30,0.00,CLR,FEW,0.00,WeatherDisplay:10.37,2014-04-20 15:30:00,
2014-04-20 11:35:00,47.9,17.9,30.40,WNW,294,0.2,3.5,30,0.00,CLR,FEW,0.00,WeatherDisplay:10.37,2014-04-20 15:35:00,
2014-04-20 11:40:00,48.6,17.7,30.40,WNW,294,0.1,0.0,29,0.00,CLR,FEW,0.00,WeatherDisplay:10.37,2014-04-20 15:40:00,
2014-04-20 11:45:00,48.6,16.9,30.39,WNW,294,0.0,1.2,28,0.00,CLR,FEW,0.00,WeatherDisplay:10.37,2014-04-20 15:45:00,
2014-04-20 11:50:00,48.3,17.5,30.39,WNW,294,2.0,3.5,29,0.00,CLR,FEW,0.00,WeatherDisplay:10.37,2014-04-20 15:50:00,
2014-04-20 11:55:00,48.6,18.5,30.39,WNW,294,1.2,3.5,30,0.00,CLR,FEW,0.00,WeatherDisplay:10.37,2014-04-20 15:55:00,
2014-04-20 12:00:00,49.1,17.3,30.39,WNW,294,2.1,3.5,28,0.00,CLR,FEW,0.00,WeatherDisplay:10.37,2014-04-20 16:00:00,
2014-04-20 12:05:00,49.0,18.1,30.39,WNW,294,1.6,3.5,29,0.00,CLR,FEW,0.00,WeatherDisplay:10.37,2014-04-20 16:05:00,
2014-04-20 12:10:00,49.0,18.1,30.39,WNW,294,1.3,2.3,29,0.00,CLR,FEW,0.00,WeatherDisplay:10.37,2014-04-20 16:10:00,
2014-04-20 12:15:00,49.3,19.1,30.38,WNW,292,3.9,4.0,30,0.00,CLR,FEW,0.00,WeatherDisplay:10.37,2014-04-20 16:15:00,
2014-04-20 12:21:00,49.7,19.5,30.38,WNW,293,0.8,2.3,30,0.00,CLR,FEW,0.00,WeatherDisplay:10.37,2014-04-20 16:21:00,
2014-04-20 12:26:00,49.9,20.4,30.38,WNW,293,1.0,2.3,31,0.00,CLR,FEW,0.00,WeatherDisplay:10.37,2014-04-20 16:26:00,
2014-04-20 12:31:00,50.0,18.9,30.38,WNW,293,1.2,3.5,29,0.00,CLR,FEW,0.00,WeatherDisplay:10.37,2014-04-20 16:31:00,
2014-04-20 12:36:00,50.1,19.8,30.38,WNW,294,0.7,3.5,30,0.00,CLR,FEW,0.00,WeatherDisplay:10.37,2014-04-20 16:36:00,
2014-04-20 12:41:00,50.1,19.8,30.38,WNW,303,4.3,5.8,30,0.00,CLR,FEW,0.00,WeatherDisplay:10.37,2014-04-20 16:41:00,
2014-04-20 12:46:00,50.6,20.3,30.37,WNW,303,2.9,3.5,30,0.00,CLR,FEW,0.00,WeatherDisplay:10.37,2014-04-20 16:46:00,
2014-04-20 12:51:00,50.7,20.4,30.37,WNW,303,0.3,2.3,30,0.00,CLR,FEW,0.00,WeatherDisplay:10.37,2014-04-20 16:51:00,
2014-04-20 12:56:00,50.8,19.6,30.37,WNW,303,0.7,2.0,29,0.00,CLR,FEW,0.00,WeatherDisplay:10.37,2014-04-20 16:56:00,
2014-04-20 13:01:00,50.9,20.5,30.36,NW,304,0.1,1.2,30,0.00,CLR,FEW,0.00,WeatherDisplay:10.37,2014-04-20 17:01:00,
2014-04-20 13:06:00,51.3,20.1,30.36,WNW,303,1.0,3.5,29,0.00,CLR,FEW,0.00,WeatherDisplay:10.37,2014-04-20 17:06:00,
2014-04-20 13:11:00,51.4,20.2,30.36,WNW,303,1.0,3.0,29,0.00,CLR,FEW,0.00,WeatherDisplay:10.37,2014-04-20 17:11:00,
2014-04-20 13:16:00,51.6,19.5,30.35,WNW,303,2.6,3.5,28,0.00,CLR,FEW,0.00,WeatherDisplay:10.37,2014-04-20 17:16:00,
2014-04-20 13:21:00,51.4,19.3,30.35,WNW,303,1.9,3.5,28,0.00,CLR,FEW,0.00,WeatherDisplay:10.37,2014-04-20 17:21:00,
2014-04-20 13:26:00,51.8,20.5,30.35,WNW,303,0.4,1.2,29,0.00,CLR,FEW,0.00,WeatherDisplay:10.37,2014-04-20 17:26:00,
2014-04-20 13:31:00,52.0,19.9,30.35,WNW,303,0.6,2.3,28,0.00,CLR,FEW,0.00,WeatherDisplay:10.37,2014-04-20 17:31:00,
2014-04-20 13:36:00,52.4,20.2,30.35,WNW,303,1.3,4.6,28,0.00,CLR,FEW,0.00,WeatherDisplay:10.37,2014-04-20 17:36:00,
2014-04-20 13:41:00,52.1,19.1,30.35,WNW,303,2.4,3.5,27,0.00,CLR,FEW,0.00,WeatherDisplay:10.37,2014-04-20 17:41:00,
2014-04-20 13:46:00,52.2,18.3,30.35,WNW,303,1.3,3.5,26,0.00,CLR,FEW,0.00,WeatherDisplay:10.37,2014-04-20 17:46:00,
2014-04-20 13:51:00,52.4,18.5,30.35,WNW,303,1.6,3.5,26,0.00,CLR,FEW,0.00,WeatherDisplay:10.37,2014-04-20 17:51:00,
2014-04-20 13:56:00,52.2,19.2,30.35,WNW,303,1.1,2.3,27,0.00,CLR,FEW,0.00,WeatherDisplay:10.37,2014-04-20 17:56:00,
2014-04-20 14:01:00,52.9,19.8,30.33,WNW,303,1.0,2.3,27,0.00,CLR,FEW,0.00,WeatherDisplay:10.37,2014-04-20 18:01:00,
2014-04-20 14:06:00,53.3,19.2,30.33,WNW,303,0.9,2.3,26,0.00,CLR,FEW,0.00,WeatherDisplay:10.37,2014-04-20 18:06:00,
2014-04-20 14:11:00,53.1,19.1,30.33,NW,304,1.3,3.5,26,0.00,CLR,FEW,0.00,WeatherDisplay:10.37,2014-04-20 18:11:00,
2014-04-20 14:16:00,52.9,18.9,30.33,WNW,303,0.9,2.3,26,0.00,CLR,FEW,0.00,WeatherDisplay:10.37,2014-04-20 18:16:00,
2014-04-20 14:21:00,53.5,17.5,30.33,NW,307,1.7,3.5,24,0.00,CLR,FEW,0.00,WeatherDisplay:10.37,2014-04-20 18:21:00,
2014-04-20 14:26:00,53.9,16.9,30.33,NW,307,2.3,3.5,23,0.00,CLR,FEW,0.00,WeatherDisplay:10.37,2014-04-20 18:26:00,
2014-04-20 14:31:00,54.1,19.0,30.33,NW,306,0.8,2.3,25,0.00,CLR,FEW,0.00,WeatherDisplay:10.37,2014-04-20 18:31:00,
2014-04-20 14:36:00,54.4,18.3,30.33,NW,306,1.4,2.3,24,0.00,CLR,FEW,0.00,WeatherDisplay:10.37,2014-04-20 18:36:00,
2014-04-20 14:41:00,54.7,18.6,30.33,WNW,303,3.1,4.6,24,0.00,CLR,FEW,0.00,WeatherDisplay:10.37,2014-04-20 18:41:00,
2014-04-20 14:46:00,55.1,18.9,30.32,WNW,303,0.2,1.2,24,0.00,CLR,FEW,0.00,WeatherDisplay:10.37,2014-04-20 18:46:00,
2014-04-20 14:51:00,55.1,17.9,30.32,WNW,303,1.3,3.5,23,0.00,CLR,FEW,0.00,WeatherDisplay:10.37,2014-04-20 18:51:00,
2014-04-20 14:56:00,55.2,18.0,30.32,NW,304,0.5,2.3,23,0.00,CLR,FEW,0.00,WeatherDisplay:10.37,2014-04-20 18:56:00,
2014-04-20 15:01:00,54.9,18.7,30.31,NW,305,1.1,3.0,24,0.00,CLR,FEW,0.00,WeatherDisplay:10.37,2014-04-20 19:01:00,
2014-04-20 15:06:00,55.1,18.9,30.31,NW,306,1.1,4.6,24,0.00,CLR,FEW,0.00,WeatherDisplay:10.37,2014-04-20 19:06:00,
2014-04-20 15:11:00,55.3,18.1,30.31,NW,306,0.2,1.2,23,0.00,CLR,FEW,0.00,WeatherDisplay:10.37,2014-04-20 19:11:00,
2014-04-20 15:16:00,55.8,22.3,30.31,NW,306,1.5,3.5,27,0.00,CLR,FEW,0.00,WeatherDisplay:10.37,2014-04-20 19:16:00,
2014-04-20 15:17:00,56.1,19.8,30.31,NW,306,0.7,3.5,24,0.00,CLR,FEW,0.00,WeatherDisplay:10.37,2014-04-20 19:17:00,
2014-04-20 15:22:00,55.7,22.2,30.31,NW,306,2.0,3.0,27,0.00,CLR,FEW,0.00,WeatherDisplay:10.37,2014-04-20 19:22:00,
2014-04-20 15:27:00,55.6,20.3,30.30,WNW,303,2.8,3.5,25,0.00,CLR,FEW,0.00,WeatherDisplay:10.37,2014-04-20 19:27:00,
2014-04-20 15:32:00,56.2,21.7,30.30,NW,306,0.2,3.5,26,0.00,CLR,FEW,0.00,WeatherDisplay:10.37,2014-04-20 19:32:00,
2014-04-20 15:37:00,57.1,21.6,30.30,NW,306,1.4,2.3,25,0.00,CLR,FEW,0.00,WeatherDisplay:10.37,2014-04-20 19:37:00,
2014-04-20 15:42:00,56.4,21.0,30.30,NW,306,0.9,3.5,25,0.00,CLR,FEW,0.00,WeatherDisplay:10.37,2014-04-20 19:42:00,
2014-04-20 15:47:00,54.5,27.4,30.30,NW,305,0.2,2.0,35,0.00,CLR,FEW,0.00,WeatherDisplay:10.37,2014-04-20 19:47:00,
2014-04-20 15:52:00,54.3,24.3,30.30,NW,304,0.1,3.5,31,0.00,CLR,FEW,0.00,WeatherDisplay:10.37,2014-04-20 19:52:00,
2014-04-20 15:57:00,55.4,21.9,30.29,WNW,303,4.8,5.8,27,0.00,CLR,FEW,0.00,WeatherDisplay:10.37,2014-04-20 19:57:00,
2014-04-20 16:02:00,55.4,21.0,30.29,WNW,303,1.0,3.5,26,0.00,CLR,FEW,0.00,WeatherDisplay:10.37,2014-04-20 20:02:00,
2014-04-20 16:07:00,56.3,20.9,30.29,WNW,303,0.3,2.3,25,0.00,CLR,FEW,0.00,WeatherDisplay:10.37,2014-04-20 20:07:00,
2014-04-20 16:12:00,56.6,21.1,30.28,WNW,303,1.4,3.5,25,0.00,CLR,FEW,0.00,WeatherDisplay:10.37,2014-04-20 20:12:00,
2014-04-20 16:17:00,57.1,22.5,30.28,NW,306,0.8,3.5,26,0.00,CLR,FEW,0.00,WeatherDisplay:10.37,2014-04-20 20:17:00,
2014-04-20 16:22:00,55.8,27.8,30.28,WNW,303,0.0,1.2,34,0.00,CLR,FEW,0.00,WeatherDisplay:10.37,2014-04-20 20:22:00,
2014-04-20 16:27:00,54.3,27.2,30.29,WNW,303,0.2,2.3,35,0.00,CLR,FEW,0.00,WeatherDisplay:10.37,2014-04-20 20:27:00,
2014-04-20 16:32:00,55.1,27.2,30.29,WNW,303,0.9,3.5,34,0.00,CLR,FEW,0.00,WeatherDisplay:10.37,2014-04-20 20:32:00,
2014-04-20 16:37:00,54.8,28.3,30.29,NW,306,3.8,6.9,36,0.00,CLR,FEW,0.00,WeatherDisplay:10.37,2014-04-20 20:37:00,
2014-04-20 16:42:00,54.6,29.5,30.28,WNW,303,0.6,1.2,38,0.00,CLR,FEW,0.00,WeatherDisplay:10.37,2014-04-20 20:42:00,
2014-04-20 16:47:00,54.8,30.9,30.28,NW,304,0.2,1.2,40,0.00,CLR,FEW,0.00,WeatherDisplay:10.37,2014-04-20 20:47:00,
2014-04-20 16:52:00,54.0,30.2,30.28,WNW,303,1.3,2.3,40,0.00,CLR,FEW,0.00,WeatherDisplay:10.37,2014-04-20 20:52:00,
2014-04-20 16:57:00,54.2,30.4,30.28,WNW,303,0.3,3.5,40,0.00,CLR,FEW,0.00,WeatherDisplay:10.37,2014-04-20 20:57:00,
2014-04-20 17:02:00,53.2,31.3,30.28,WNW,303,0.4,1.2,43,0.00,CLR,FEW,0.00,WeatherDisplay:10.37,2014-04-20 21:02:00,
2014-04-20 17:07:00,53.3,31.9,30.28,WNW,303,0.0,1.2,44,0.00,CLR,FEW,0.00,WeatherDisplay:10.37,2014-04-20 21:07:00,
2014-04-20 17:12:00,52.9,30.4,30.27,WNW,303,0.8,1.2,42,0.00,CLR,FEW,0.00,WeatherDisplay:10.37,2014-04-20 21:12:00,
2014-04-20 17:17:00,53.1,32.3,30.27,WNW,292,0.0,0.0,45,0.00,CLR,FEW,0.00,WeatherDisplay:10.37,2014-04-20 21:17:00,
2014-04-20 17:22:00,53.7,31.7,30.27,WNW,292,0.2,2.3,43,0.00,CLR,FEW,0.00,WeatherDisplay:10.37,2014-04-20 21:22:00,
2014-04-20 17:27:00,53.5,31.0,30.28,WNW,293,2.3,3.5,42,0.00,CLR,FEW,0.00,WeatherDisplay:10.37,2014-04-20 21:27:00,
2014-04-20 17:32:00,53.0,31.1,30.28,NW,306,1.2,2.0,43,0.00,CLR,FEW,0.00,WeatherDisplay:10.37,2014-04-20 21:32:00,
2014-04-20 17:37:00,52.8,30.9,30.28,NW,306,0.0,2.3,43,0.00,CLR,FEW,0.00,WeatherDisplay:10.37,2014-04-20 21:37:00,
2014-04-20 17:42:00,52.7,30.8,30.27,NW,306,1.3,3.5,43,0.00,CLR,FEW,0.00,WeatherDisplay:10.37,2014-04-20 21:42:00,
2014-04-20 17:47:00,52.9,31.6,30.27,WNW,292,1.4,5.8,44,0.00,CLR,FEW,0.00,WeatherDisplay:10.37,2014-04-20 21:47:00,
2014-04-20 17:52:00,52.4,32.7,30.27,WNW,292,0.8,2.3,47,0.00,CLR,FEW,0.00,WeatherDisplay:10.37,2014-04-20 21:52:00,
2014-04-20 17:57:00,52.4,32.2,30.27,WNW,292,0.1,1.2,46,0.00,CLR,FEW,0.00,WeatherDisplay:10.37,2014-04-20 21:57:00,
2014-04-20 18:02:00,52.3,31.0,30.27,WNW,292,0.5,3.0,44,0.00,CLR,FEW,0.00,WeatherDisplay:10.37,2014-04-20 22:02:00,
2014-04-20 18:07:00,51.8,31.1,30.27,WNW,287,0.9,3.5,45,0.00,CLR,FEW,0.00,WeatherDisplay:10.37,2014-04-20 22:07:00,